Time;durP1;ratioP1;P1;durP2;ratioP2;P2;SDS_P1;SDS_P2;PMS_P1;PMS_P2;Temp;Humidity;BMP_temperature;BMP_pressure;BME280_temperature;BME280_humidity;BME280_pressure;Samples;Min_cycle;Max_cycle;Signal;HPM_P1;HPM_P2
2021/01/10 00:00:27;;;;;;;48.28;23.05;;;;;;;-1.71;93.45;99591.52;1807793;79;21118;-70
2021/01/10 00:02:56;;;;;;;47.93;22.90;;;;;;;-1.65;93.48;99597.31;1807970;79;21129;-69
2021/01/10 00:05:27;;;;;;;44.10;21.15;;;;;;;-1.60;93.40;99592.58;1807871;79;21189;-70
2021/01/10 00:07:56;;;;;;;50.95;23.10;;;;;;;-1.55;93.32;99598.89;1807822;79;21022;-69
2021/01/10 00:10:24;;;;;;;44.53;21.30;;;;;;;-1.51;93.18;99603.28;1807848;79;21019;-69
2021/01/10 00:12:57;;;;;;;44.85;21.68;;;;;;;-1.47;93.18;99601.75;1807809;79;22042;-69
2021/01/10 00:15:25;;;;;;;43.92;21.15;;;;;;;-1.44;93.03;99603.45;1780525;79;21579;-70
2021/01/10 00:17:53;;;;;;;41.42;20.90;;;;;;;-1.40;92.90;99603.27;1807934;79;21199;-70
2021/01/10 00:20:21;;;;;;;43.38;21.70;;;;;;;-1.37;92.72;99606.83;1807807;79;21073;-70
2021/01/10 00:22:55;;;;;;;44.20;21.60;;;;;;;-1.34;92.79;99611.75;1778876;79;21054;-70
2021/01/10 00:25:23;;;;;;;40.88;19.62;;;;;;;-1.29;92.80;99616.42;1807906;78;20916;-70
2021/01/10 00:27:52;;;;;;;42.73;21.77;;;;;;;-1.26;92.55;99615.95;1808047;79;20936;-70
2021/01/10 00:30:21;;;;;;;44.35;21.48;;;;;;;-1.23;92.37;99618.70;1807969;79;21150;-70
2021/01/10 00:32:53;;;;;;;45.95;21.07;;;;;;;-1.21;92.25;99623.33;1807986;79;20960;-70
2021/01/10 00:35:25;;;;;;;44.48;21.80;;;;;;;-1.18;92.35;99626.36;1807734;79;27066;-73
2021/01/10 00:37:56;;;;;;;39.98;20.27;;;;;;;-1.14;92.22;99626.67;1808156;79;20929;-73
2021/01/10 00:40:25;;;;;;;50.33;23.32;;;;;;;-1.13;92.04;99626.44;1807897;79;21158;-73
2021/01/10 00:42:53;;;;;;;42.17;21.65;;;;;;;-1.11;91.99;99620.81;1808003;79;21181;-73
2021/01/10 00:45:21;;;;;;;43.95;21.70;;;;;;;-1.10;91.90;99617.06;1807986;79;20932;-70
2021/01/10 00:47:54;;;;;;;40.20;20.45;;;;;;;-1.09;91.81;99614.66;1808170;79;21064;-69
2021/01/10 00:50:36;;;;;;;44.42;21.10;;;;;;;-1.03;91.75;99611.02;1890220;76;22773;-69
2021/01/10 00:53:05;;;;;;;38.20;19.65;;;;;;;-1.06;91.61;99618.23;1861036;77;21490;-71
2021/01/10 00:55:35;;;;;;;43.10;20.45;;;;;;;-1.04;91.73;99618.81;1861097;77;21319;-72
2021/01/10 00:58:04;;;;;;;40.75;21.25;;;;;;;-1.05;91.55;99611.25;1861000;77;20947;-72
2021/01/10 01:00:32;;;;;;;39.15;19.73;;;;;;;-1.04;91.49;99612.89;1861062;77;21489;-72
2021/01/10 01:03:01;;;;;;;41.02;20.08;;;;;;;-1.02;91.44;99608.61;1861132;77;21114;-71
2021/01/10 01:05:30;;;;;;;43.83;21.12;;;;;;;-1.01;91.34;99611.59;1861047;77;20998;-71
2021/01/10 01:07:58;;;;;;;44.53;22.07;;;;;;;-1.02;91.19;99605.39;1861051;77;22259;-71
2021/01/10 01:10:27;;;;;;;41.23;21.68;;;;;;;-1.01;91.08;99612.41;1857847;77;21494;-71
2021/01/10 01:12:55;;;;;;;44.27;21.25;;;;;;;-0.99;91.05;99613.52;1861059;77;21471;-69
2021/01/10 01:15:23;;;;;;;45.73;21.97;;;;;;;-0.98;91.07;99608.42;1861106;77;20923;-70
2021/01/10 01:17:51;;;;;;;47.23;23.00;;;;;;;-0.96;91.10;99604.96;1861065;77;21010;-69
2021/01/10 01:20:20;;;;;;;45.75;20.62;;;;;;;-0.93;91.00;99609.05;1860993;77;21415;-71
2021/01/10 01:22:48;;;;;;;46.90;21.50;;;;;;;-0.93;90.84;99607.18;1860955;77;21045;-71
2021/01/10 01:25:17;;;;;;;46.83;21.95;;;;;;;-0.90;91.33;99608.05;1861027;77;21454;-71
2021/01/10 01:27:44;;;;;;;46.15;22.80;;;;;;;-0.88;91.05;99608.62;1881174;76;20903;-71
2021/01/10 01:30:13;;;;;;;45.50;22.55;;;;;;;-0.87;90.71;99606.22;1807159;79;21136;-73
2021/01/10 01:32:41;;;;;;;43.28;22.13;;;;;;;-0.87;90.37;99606.22;1822880;78;21339;-72
2021/01/10 01:35:09;;;;;;;45.10;22.70;;;;;;;-0.86;90.44;99605.70;1807153;79;20962;-72
2021/01/10 01:37:37;;;;;;;43.68;21.70;;;;;;;-0.84;90.69;99604.92;1823018;78;21065;-72
2021/01/10 01:40:06;;;;;;;45.52;22.70;;;;;;;-0.84;90.51;99601.70;1807163;79;20910;-72
2021/01/10 01:42:34;;;;;;;49.15;22.77;;;;;;;-0.84;90.35;99605.75;1822923;78;20914;-72
2021/01/10 01:45:08;;;;;;;46.88;22.42;;;;;;;-0.83;90.31;99611.42;1807214;79;21201;-73
2021/01/10 01:47:36;;;;;;;45.30;20.17;;;;;;;-0.81;90.53;99611.19;1823140;78;20938;-73
2021/01/10 01:50:05;;;;;;;44.13;21.73;;;;;;;-0.81;90.39;99616.05;1796492;78;21477;-70
2021/01/10 01:52:33;;;;;;;45.20;21.82;;;;;;;-0.81;90.21;99609.84;1813230;79;20927;-71
2021/01/10 01:55:05;;;;;;;39.67;20.52;;;;;;;-0.81;90.36;99611.19;1826138;78;20919;-70
2021/01/10 01:57:32;;;;;;;45.98;22.82;;;;;;;-0.81;90.30;99612.00;1826117;78;21372;-71
2021/01/10 02:00:01;;;;;;;43.73;22.62;;;;;;;-0.80;90.15;99616.87;1825933;78;21078;-71
2021/01/10 02:02:30;;;;;;;39.42;19.45;;;;;;;-0.80;90.07;99620.91;1825527;78;20938;-71
2021/01/10 02:05:03;;;;;;;40.65;20.72;;;;;;;-0.80;89.97;99622.26;1812535;78;21410;-71
2021/01/10 02:07:55;;;;;;;44.25;21.50;;;;;;;-0.81;90.11;99618.74;1825562;78;21120;-71
2021/01/10 02:10:26;;;;;;;44.77;21.05;;;;;;;-0.79;89.99;99622.55;1808873;79;21432;-72
2021/01/10 02:12:58;;;;;;;43.90;19.50;;;;;;;-0.78;89.89;99620.96;1792705;80;20934;-74
2021/01/10 02:15:29;;;;;;;;;;;;;;;-0.80;89.75;99614.98;1795347;80;20954;-74
2021/01/10 02:17:56;;;;;;;46.02;21.95;;;;;;;-0.78;90.45;99614.75;1792419;80;20489;-73
2021/01/10 02:20:30;;;;;;;51.73;23.52;;;;;;;-0.80;90.00;99617.69;1792799;80;20911;-72
2021/01/10 02:23:09;;;;;;;45.30;20.50;;;;;;;-0.79;89.93;99621.20;1793067;79;21378;-70
2021/01/10 02:25:37;;;;;;;43.75;21.00;;;;;;;-0.79;89.84;99617.16;1792997;80;20938;-70
2021/01/10 02:28:05;;;;;;;48.60;22.87;;;;;;;-0.81;89.97;99613.35;1793022;80;20887;-70
2021/01/10 02:30:33;;;;;;;46.23;22.62;;;;;;;-0.78;89.99;99615.57;1792975;80;21096;-70
2021/01/10 02:33:06;;;;;;;43.75;21.50;;;;;;;-0.78;89.77;99614.22;1792830;79;21567;-70
2021/01/10 02:35:34;;;;;;;48.92;22.55;;;;;;;-0.78;89.53;99615.57;1767525;78;22400;-72
2021/01/10 02:38:13;;;;;;;49.35;22.10;;;;;;;-0.77;89.49;99612.34;1768999;79;20982;-73
2021/01/10 02:40:56;;;;;;;48.25;22.82;;;;;;;-0.76;89.56;99617.50;1812557;79;20938;-72
2021/01/10 02:43:26;;;;;;;45.50;20.57;;;;;;;-0.75;89.22;99619.66;1802130;78;20923;-72
2021/01/10 02:45:59;;;;;;;47.62;22.37;;;;;;;-0.74;89.07;99630.20;1793160;80;20994;-73
2021/01/10 02:48:27;;;;;;;44.47;21.33;;;;;;;-0.73;89.09;99621.59;1793296;80;21375;-72
2021/01/10 02:50:56;;;;;;;47.23;22.17;;;;;;;-0.70;89.20;99622.45;1746635;80;21083;-72
2021/01/10 02:53:23;;;;;;;38.48;20.52;;;;;;;-0.70;88.76;99620.58;1743504;81;20952;-72
2021/01/10 02:55:51;;;;;;;42.73;20.25;;;;;;;-0.69;88.49;99620.05;1743506;81;21024;-72
2021/01/10 02:58:23;;;;;;;44.25;21.37;;;;;;;-0.70;88.40;99615.19;1743519;82;21048;-72
2021/01/10 03:00:51;;;;;;;39.50;19.57;;;;;;;-0.70;88.33;99618.41;1743758;82;22108;-72
2021/01/10 03:03:19;;;;;;;42.03;19.50;;;;;;;-0.69;88.05;99617.36;1743460;82;21032;-72
2021/01/10 03:05:47;;;;;;;37.00;19.02;;;;;;;-0.69;88.00;99614.66;1743524;82;20921;-72
2021/01/10 03:08:15;;;;;;;36.90;18.85;;;;;;;-0.70;87.84;99615.19;1743483;82;20942;-71
2021/01/10 03:10:42;;;;;;;46.73;19.35;;;;;;;-0.68;88.14;99617.11;1743459;82;21013;-71
2021/01/10 03:13:09;;;;;;;41.48;18.48;;;;;;;-0.66;88.00;99615.53;1743474;82;21318;-71
2021/01/10 03:15:37;;;;;;;38.53;18.35;;;;;;;-0.66;87.68;99620.92;1716549;82;21079;-71
2021/01/10 03:18:18;;;;;;;33.92;17.10;;;;;;;-0.68;87.51;99614.42;1743510;82;20949;-72
2021/01/10 03:20:47;;;;;;;32.47;15.93;;;;;;;-0.69;87.06;99611.44;1743788;81;21491;-72
2021/01/10 03:23:17;;;;;;;36.73;18.05;;;;;;;-0.68;86.84;99609.55;1743527;81;21365;-71
2021/01/10 03:25:44;;;;;;;34.73;16.82;;;;;;;-0.67;86.73;99611.19;1743453;81;21327;-71
2021/01/10 03:28:12;;;;;;;31.97;15.98;;;;;;;-0.66;86.33;99610.14;1743450;82;20997;-71
2021/01/10 03:30:40;;;;;;;34.33;15.43;;;;;;;-0.65;86.41;99607.73;1743457;82;20997;-71
2021/01/10 03:33:08;;;;;;;33.60;17.00;;;;;;;-0.62;85.85;99617.21;1743477;82;21036;-71
2021/01/10 03:35:39;;;;;;;39.13;16.73;;;;;;;-0.63;85.42;99612.87;1743498;82;20953;-71
2021/01/10 03:38:06;;;;;;;34.88;17.30;;;;;;;-0.61;85.29;99617.50;1743582;82;21479;-72
2021/01/10 03:40:34;;;;;;;34.98;16.70;;;;;;;-0.61;85.21;99611.58;1743444;82;20933;-72
2021/01/10 03:43:02;;;;;;;39.13;17.77;;;;;;;-0.61;85.19;99620.20;1743467;82;21531;-72
2021/01/10 03:45:29;;;;;;;37.13;17.07;;;;;;;-0.61;85.18;99629.63;1743543;82;21553;-72
2021/01/10 03:47:57;;;;;;;39.03;17.92;;;;;;;-0.63;85.41;99633.92;1743555;82;21496;-71
2021/01/10 03:50:24;;;;;;;36.90;17.40;;;;;;;-0.64;85.72;99636.33;1743279;80;21205;-71
2021/01/10 03:52:52;;;;;;;38.55;18.48;;;;;;;-0.65;86.05;99631.99;1743419;82;20985;-70
2021/01/10 03:55:19;;;;;;;44.13;20.92;;;;;;;-0.67;86.31;99643.02;1743559;82;21515;-70
2021/01/10 03:57:47;;;;;;;42.03;20.65;;;;;;;-0.68;86.61;99641.91;1743468;82;20921;-71
2021/01/10 04:00:15;;;;;;;47.53;21.23;;;;;;;-0.68;86.95;99645.95;1743592;82;21459;-69
2021/01/10 04:02:45;;;;;;;39.50;20.45;;;;;;;-0.68;87.19;99646.77;1743449;81;21475;-70
2021/01/10 04:05:12;;;;;;;39.03;20.62;;;;;;;-0.68;87.57;99645.95;1743420;82;21483;-70
2021/01/10 04:07:41;;;;;;;42.27;20.92;;;;;;;-0.69;87.81;99649.70;1743458;81;21016;-70
2021/01/10 04:10:10;;;;;;;41.13;20.40;;;;;;;-0.68;88.00;99650.81;1743393;82;21016;-70
2021/01/10 04:12:38;;;;;;;44.10;21.27;;;;;;;-0.68;88.15;99650.00;1743484;82;21056;-71
2021/01/10 04:15:08;;;;;;;48.73;22.20;;;;;;;-0.68;88.38;99650.00;1743468;82;21375;-71
2021/01/10 04:17:35;;;;;;;40.92;20.55;;;;;;;-0.69;88.45;99647.83;1743450;82;21032;-70
2021/01/10 04:20:05;;;;;;;44.70;22.50;;;;;;;-0.69;88.95;99653.22;1743455;82;20914;-70
2021/01/10 04:22:32;;;;;;;45.70;22.67;;;;;;;-0.68;89.06;99652.69;1743456;81;21008;-69
2021/01/10 04:25:03;;;;;;;43.38;21.60;;;;;;;-0.68;88.99;99654.86;1743477;82;21001;-69
2021/01/10 04:27:31;;;;;;;46.28;22.98;;;;;;;-0.69;89.06;99653.75;1743437;81;21365;-69
2021/01/10 04:29:58;;;;;;;41.55;21.35;;;;;;;-0.69;89.28;99659.96;1743304;82;21052;-69
2021/01/10 04:32:26;;;;;;;45.65;23.18;;;;;;;-0.70;89.32;99658.33;1743470;82;20957;-69
2021/01/10 04:34:54;;;;;;;46.08;23.10;;;;;;;-0.72;89.31;99659.09;1743456;81;20945;-69
2021/01/10 04:37:21;;;;;;;42.83;21.62;;;;;;;-0.71;89.34;99658.56;1743473;82;21571;-71
2021/01/10 04:39:48;;;;;;;44.65;19.90;;;;;;;-0.73;89.39;99657.45;1743472;82;21410;-70
2021/01/10 04:42:16;;;;;;;43.65;21.50;;;;;;;-0.75;89.41;99658.22;1743349;82;21490;-70
2021/01/10 04:44:44;;;;;;;36.85;19.98;;;;;;;-0.76;89.33;99657.93;1743450;81;20929;-70
2021/01/10 04:47:11;;;;;;;39.30;19.67;;;;;;;-0.76;89.25;99662.50;1743422;81;20961;-70
2021/01/10 04:49:40;;;;;;;36.80;18.00;;;;;;;-0.77;89.34;99658.98;1720287;79;20988;-71
2021/01/10 04:52:07;;;;;;;38.75;19.30;;;;;;;-0.74;89.35;99666.59;1789860;80;21831;-71
2021/01/10 04:54:43;;;;;;;41.00;19.87;;;;;;;-0.73;89.14;99666.89;1789794;80;21476;-71
2021/01/10 04:57:11;;;;;;;40.05;18.85;;;;;;;-0.72;89.09;99669.88;1789889;80;20974;-71
2021/01/10 04:59:42;;;;;;;41.92;18.27;;;;;;;-0.72;89.03;99673.10;1789810;80;21009;-71
2021/01/10 05:02:10;;;;;;;38.55;20.05;;;;;;;-0.72;88.97;99668.53;1789828;80;20958;-71
2021/01/10 05:04:39;;;;;;;36.85;18.73;;;;;;;-0.73;88.65;99670.93;1789838;80;22704;-70
2021/01/10 05:07:07;;;;;;;42.78;19.52;;;;;;;-0.74;88.45;99671.17;1739295;80;20942;-72
2021/01/10 05:09:36;;;;;;;39.00;19.87;;;;;;;-0.74;88.60;99676.56;1789789;80;21112;-72
2021/01/10 05:12:05;;;;;;;43.70;19.80;;;;;;;-0.75;88.63;99679.78;1789855;80;21509;-71
2021/01/10 05:14:32;;;;;;;38.17;19.12;;;;;;;-0.74;88.57;99692.73;1789968;80;21116;-70
2021/01/10 05:17:01;;;;;;;38.58;19.45;;;;;;;-0.73;88.50;99686.29;1789812;79;23525;-72
2021/01/10 05:19:30;;;;;;;43.10;19.12;;;;;;;-0.72;88.56;99698.18;1789795;80;20994;-73
2021/01/10 05:22:05;;;;;;;37.00;18.42;;;;;;;-0.71;88.44;99694.42;1789814;80;21128;-70
2021/01/10 05:24:28;;;;;;;34.85;17.85;;;;;;;-0.70;88.30;99687.98;1789754;80;21009;-70
2021/01/10 05:26:56;;;;;;;35.73;18.37;;;;;;;-0.69;88.15;99700.93;1789832;80;20934;-72
2021/01/10 05:29:23;;;;;;;33.58;17.30;;;;;;;-0.69;88.01;99700.93;1789835;80;22963;-71
2021/01/10 05:31:51;;;;;;;35.23;17.67;;;;;;;-0.70;88.14;99702.80;1739047;80;21116;-72
2021/01/10 05:34:19;;;;;;;36.58;18.80;;;;;;;-0.68;88.08;99698.52;1739144;80;21611;-71
2021/01/10 05:36:46;;;;;;;34.63;16.75;;;;;;;-0.69;87.89;99708.48;1789095;80;21529;-73
2021/01/10 05:39:19;;;;;;;34.92;18.70;;;;;;;-0.69;87.87;99700.41;1789937;80;21073;-68
2021/01/10 05:42:01;;;;;;;34.60;17.67;;;;;;;-0.69;87.86;99702.28;1799781;78;21484;-69
2021/01/10 05:44:44;;;;;;;33.73;17.20;;;;;;;-0.69;87.86;99705.80;1822253;78;21599;-69
2021/01/10 05:47:17;;;;;;;35.23;17.62;;;;;;;-0.69;87.88;99704.45;1806629;79;20979;-68
2021/01/10 05:49:50;;;;;;;35.28;17.92;;;;;;;-0.70;87.84;99714.12;1822357;78;21065;-69
2021/01/10 05:52:19;;;;;;;34.70;18.07;;;;;;;-0.71;88.04;99708.44;1806613;79;21030;-68
2021/01/10 05:57:35;;;;;;;35.88;19.30;;;;;;;-0.71;88.00;99721.39;1890133;76;22689;-74
2021/01/10 06:00:05;;;;;;;33.73;17.40;;;;;;;-0.75;88.12;99728.31;1860911;77;20998;-73
2021/01/10 06:02:35;;;;;;;36.77;19.12;;;;;;;-0.74;88.61;99729.95;1861139;77;22087;-81
2021/01/10 06:05:16;;;;;;;41.05;19.80;;;;;;;-0.75;88.34;99728.31;1861361;77;21101;-72
2021/01/10 06:07:48;;;;;;;39.33;19.00;;;;;;;-0.75;88.34;99728.31;1860996;77;20979;-77
2021/01/10 06:10:29;;;;;;;41.45;20.68;;;;;;;-0.76;88.59;99730.72;1861020;77;20884;-73
2021/01/10 06:13:05;;;;;;;44.95;20.97;;;;;;;-0.75;88.96;99736.40;1861206;77;20896;-76
2021/01/10 06:15:36;;;;;;;45.45;22.02;;;;;;;-0.76;88.78;99733.41;1860764;77;22480;-77
2021/01/10 06:18:05;;;;;;;39.98;20.02;;;;;;;-0.78;88.76;99738.22;1861076;77;20987;-74
2021/01/10 06:20:35;;;;;;;46.23;21.45;;;;;;;-0.81;88.99;99736.52;1860983;77;20988;-76
2021/01/10 06:23:04;;;;;;;44.30;21.73;;;;;;;-0.82;89.07;99745.14;1861055;77;20982;-74
2021/01/10 06:25:38;;;;;;;45.65;22.75;;;;;;;-0.84;89.13;99747.25;1859876;77;20912;-76
2021/01/10 06:28:16;;;;;;;46.02;21.95;;;;;;;-0.84;89.21;99743.73;1827387;78;22175;-76
2021/01/10 06:30:55;;;;;;;47.78;24.10;;;;;;;-0.84;89.28;99745.08;1796150;78;21597;-76
2021/01/10 06:33:32;;;;;;;48.25;25.00;;;;;;;-0.85;89.37;99744.79;1827222;78;20994;-73
2021/01/10 06:36:08;;;;;;;47.38;23.42;;;;;;;-0.84;89.48;99752.64;1827224;78;20935;-72
2021/01/10 06:38:39;;;;;;;51.28;24.77;;;;;;;-0.84;89.58;99756.69;1827272;78;20979;-73
2021/01/10 06:41:43;;;;;;;42.10;21.40;;;;;;;-0.85;89.66;99761.78;1827191;78;21473;-79
2021/01/10 06:44:10;;;;;;;57.60;25.15;;;;;;;-0.84;90.05;99767.47;1827280;78;21874;-80
2021/01/10 06:46:39;;;;;;;46.77;23.62;;;;;;;-0.84;90.00;99775.55;1795688;78;20927;-80
2021/01/10 06:49:06;;;;;;;51.63;24.12;;;;;;;-0.84;90.03;99775.55;1736583;78;20947;-75
2021/01/10 06:51:33;;;;;;;52.17;24.90;;;;;;;-0.83;90.20;99771.80;1827198;78;20971;-79
2021/01/10 06:54:08;;;;;;;49.40;23.87;;;;;;;-0.83;90.34;99772.33;1770343;78;22287;-77
2021/01/10 06:56:36;;;;;;;50.23;24.00;;;;;;;-0.81;90.28;99777.78;1827131;78;21477;-86
2021/01/10 06:59:11;;;;;;;59.05;26.77;;;;;;;-0.79;90.28;99780.23;1827242;78;20955;-76
2021/01/10 07:01:56;;;;;;;57.30;26.37;;;;;;;-0.77;90.22;99783.52;1827262;78;20932;-80
2021/01/10 07:04:27;;;;;;;45.92;22.48;;;;;;;-0.76;90.36;99782.46;1827287;78;20939;-79
2021/01/10 07:06:55;;;;;;;44.88;22.20;;;;;;;-0.75;90.33;99781.41;1826407;78;21193;-83
2021/01/10 07:09:22;;;;;;;49.63;23.25;;;;;;;-0.74;90.37;99787.91;1824952;78;21101;-74
2021/01/10 07:11:51;;;;;;;55.15;24.52;;;;;;;-0.71;90.47;99793.36;1825617;78;21173;-78
2021/01/10 07:14:24;;;;;;;46.50;24.18;;;;;;;-0.71;90.26;99786.09;1825082;78;20912;-82
2021/01/10 07:17:09;;;;;;;51.90;25.45;;;;;;;-0.70;90.19;99792.30;1824890;78;20956;-85
2021/01/10 07:19:46;;;;;;;58.50;25.23;;;;;;;-0.69;90.18;99793.41;1825040;78;21474;-83
2021/01/10 07:22:31;;;;;;;49.18;22.32;;;;;;;-0.68;90.09;99789.66;1824549;78;20956;-73
2021/01/10 07:25:21;;;;;;;53.98;25.50;;;;;;;-0.66;90.19;99786.73;1824829;78;21197;-75
2021/01/10 07:27:50;;;;;;;53.13;25.20;;;;;;;-0.67;90.19;99794.00;1798945;78;20935;-75
2021/01/10 07:30:25;;;;;;;50.08;23.10;;;;;;;-0.67;90.19;99803.44;1824876;78;20923;-77
2021/01/10 07:32:53;;;;;;;50.30;24.60;;;;;;;-0.66;90.29;99805.61;1824882;78;21259;-77
2021/01/10 07:35:21;;;;;;;51.10;25.10;;;;;;;-0.66;90.46;99796.17;1824666;78;21499;-80
2021/01/10 07:37:48;;;;;;;52.30;25.45;;;;;;;-0.64;90.56;99801.33;1824794;78;21070;-76
2021/01/10 07:40:24;;;;;;;48.55;22.87;;;;;;;-0.63;90.62;99804.31;1793496;78;21499;-75
2021/01/10 07:43:01;;;;;;;52.67;26.07;;;;;;;-0.64;91.28;99799.98;1825100;78;21177;-73
2021/01/10 07:45:39;;;;;;;49.98;24.35;;;;;;;-0.64;91.26;99804.02;1826431;78;21197;-79
2021/01/10 07:48:08;;;;;;;57.55;25.75;;;;;;;-0.64;91.34;99805.37;1826647;78;21522;-82
2021/01/10 07:50:36;;;;;;;56.42;25.25;;;;;;;-0.63;91.39;99808.36;1759953;78;21168;-78
2021/01/10 07:53:04;;;;;;;52.05;24.98;;;;;;;-0.62;91.87;99809.47;1825487;78;21000;-78
2021/01/10 07:55:32;;;;;;;50.78;24.23;;;;;;;-0.60;91.95;99807.89;1826309;78;21014;-79
2021/01/10 07:58:15;;;;;;;54.50;23.75;;;;;;;-0.60;91.99;99811.41;1826593;78;22332;-78
2021/01/10 08:00:49;;;;;;;;;;;;;;;-0.60;92.03;99805.19;1829295;78;20962;-78
2021/01/10 08:03:27;;;;;;;47.13;21.77;;;;;;;-0.59;92.36;99808.17;1826676;78;20109;-77
2021/01/10 08:06:04;;;;;;;60.08;25.82;;;;;;;-0.57;92.57;99812.25;1826630;78;20975;-78
2021/01/10 08:08:46;;;;;;;54.80;24.20;;;;;;;-0.56;92.60;99815.23;1826580;78;21019;-77
2021/01/10 08:11:31;;;;;;;46.30;20.72;;;;;;;-0.55;92.63;99809.31;1826209;78;21150;-77
2021/01/10 08:13:59;;;;;;;56.58;27.13;;;;;;;-0.51;92.74;99813.17;1824036;78;20948;-76
2021/01/10 08:16:33;;;;;;;51.50;24.27;;;;;;;-0.42;92.98;99811.76;1825064;78;21185;-73
2021/01/10 08:19:05;;;;;;;51.30;24.23;;;;;;;-0.39;92.72;99813.98;1824666;78;21181;-73
2021/01/10 08:21:33;;;;;;;52.80;26.05;;;;;;;-0.35;93.05;99817.31;1825931;78;21629;-73
2021/01/10 08:24:05;;;;;;;50.60;23.98;;;;;;;-0.30;93.11;99813.91;1824953;78;21203;-73
2021/01/10 08:26:41;;;;;;;49.27;23.52;;;;;;;-0.25;92.87;99819.94;1826018;77;21163;-73
2021/01/10 08:29:09;;;;;;;64.80;28.15;;;;;;;-0.24;92.72;99816.18;1826168;78;21010;-73
2021/01/10 08:31:38;;;;;;;52.00;23.77;;;;;;;-0.23;92.52;99816.47;1826259;78;21061;-72
2021/01/10 08:34:08;;;;;;;54.85;24.65;;;;;;;-0.20;92.61;99817.34;1826622;78;20931;-72
2021/01/10 08:36:36;;;;;;;58.02;28.70;;;;;;;-0.17;92.81;99816.87;1826586;78;21360;-72
2021/01/10 08:39:09;;;;;;;59.73;28.60;;;;;;;-0.12;92.75;99819.14;1826551;78;20991;-72
2021/01/10 08:41:46;;;;;;;66.62;29.30;;;;;;;-0.09;92.67;99825.94;1826661;78;20943;-71
2021/01/10 08:44:18;;;;;;;64.87;28.83;;;;;;;-0.08;92.50;99824.34;1826648;78;20991;-72
2021/01/10 08:46:50;;;;;;;57.33;26.52;;;;;;;-0.09;92.46;99824.06;1826628;78;21057;-72
2021/01/10 08:49:19;;;;;;;58.75;27.70;;;;;;;-0.10;92.29;99818.37;1826707;78;22122;-73
2021/01/10 08:51:50;;;;;;;52.17;24.15;;;;;;;-0.11;92.44;99823.48;1826641;78;21469;-73
2021/01/10 08:54:23;;;;;;;60.17;29.18;;;;;;;-0.10;92.69;99818.91;1826760;78;21486;-72
2021/01/10 08:56:52;;;;;;;49.95;26.15;;;;;;;-0.10;92.70;99814.32;1826556;78;21065;-72
2021/01/10 08:59:23;;;;;;;55.30;25.90;;;;;;;-0.11;92.75;99808.64;1826729;78;21573;-72
2021/01/10 09:01:51;;;;;;;60.90;29.15;;;;;;;-0.10;92.85;99812.98;1826627;78;21242;-72
2021/01/10 09:04:19;;;;;;;49.58;23.87;;;;;;;-0.10;92.80;99808.92;1826537;78;20939;-72
2021/01/10 09:07:10;;;;;;;53.08;26.10;;;;;;;-0.10;92.90;99811.63;1826602;78;20880;-72
2021/01/10 09:09:50;;;;;;;47.23;23.38;;;;;;;-0.10;92.84;99808.11;1786522;78;20931;-72
2021/01/10 09:12:38;;;;;;;53.52;27.30;;;;;;;-0.13;92.86;99804.54;1826722;78;21066;-72
2021/01/10 09:15:21;;;;;;;53.63;25.37;;;;;;;-0.15;92.95;99808.83;1826579;78;21370;-72
2021/01/10 09:17:56;;;;;;;53.30;24.65;;;;;;;-0.17;92.97;99810.94;1826286;78;20943;-72
2021/01/10 09:20:37;;;;;;;57.43;26.15;;;;;;;-0.18;93.12;99813.88;1826677;78;21537;-72
2021/01/10 09:23:09;;;;;;;56.02;26.25;;;;;;;-0.19;93.26;99811.71;1826589;78;21531;-72
2021/01/10 09:25:36;;;;;;;52.93;26.30;;;;;;;-0.17;93.44;99810.94;1826692;77;20912;-72
2021/01/10 09:28:17;;;;;;;50.90;24.60;;;;;;;-0.14;93.60;99810.99;1826563;78;21185;-72
2021/01/10 09:30:52;;;;;;;53.85;26.90;;;;;;;-0.11;93.67;99808.64;1826617;78;21529;-72
2021/01/10 09:33:24;;;;;;;53.42;25.55;;;;;;;-0.07;93.68;99807.62;1826055;78;20931;-72
2021/01/10 09:35:52;;;;;;;49.38;24.77;;;;;;;-0.05;93.78;99806.86;1826667;78;21181;-72
2021/01/10 09:38:28;;;;;;;50.08;24.75;;;;;;;-0.03;93.81;99808.78;1826547;78;21003;-72
2021/01/10 09:41:10;;;;;;;52.62;25.02;;;;;;;-0.01;93.66;99809.37;1826583;78;21363;-72
2021/01/10 09:43:52;;;;;;;56.23;26.17;;;;;;;-0.02;93.49;99809.90;1825977;78;20999;-72
2021/01/10 09:46:39;;;;;;;57.05;25.68;;;;;;;-0.05;93.45;99804.98;1824053;78;20935;-72
2021/01/10 09:49:20;;;;;;;53.28;25.55;;;;;;;-0.05;93.73;99809.55;1824824;78;20931;-72
2021/01/10 09:51:54;;;;;;;54.67;25.20;;;;;;;-0.07;93.79;99808.98;1824962;78;20915;-72
2021/01/10 09:54:24;;;;;;;50.45;25.23;;;;;;;-0.09;93.76;99807.87;1824849;78;21054;-72
2021/01/10 09:56:57;;;;;;;54.08;25.12;;;;;;;-0.10;93.89;99807.58;1824573;78;21632;-73
2021/01/10 09:59:47;;;;;;;57.67;26.55;;;;;;;-0.09;94.02;99807.87;1826854;78;21039;-73
2021/01/10 10:02:25;;;;;;;52.60;26.27;;;;;;;-0.08;94.13;99800.06;1798346;77;21557;-74
2021/01/10 10:04:55;;;;;;;56.00;27.00;;;;;;;-0.08;94.08;99801.41;1827334;78;20987;-75
2021/01/10 10:07:48;;;;;;;55.60;26.57;;;;;;;-0.04;94.41;99795.00;1827909;78;21374;-75
2021/01/10 10:10:22;;;;;;;57.83;25.97;;;;;;;0.00;94.38;99794.81;1827496;78;21003;-76
2021/01/10 10:12:57;;;;;;;57.67;26.85;;;;;;;-0.03;94.28;99806.91;1828018;78;20920;-74
2021/01/10 10:15:42;;;;;;;53.63;25.15;;;;;;;-0.02;94.49;99796.41;1828083;78;21545;-74
2021/01/10 10:18:19;;;;;;;53.73;26.60;;;;;;;0.00;94.57;99794.25;1798874;77;21073;-73
2021/01/10 10:20:47;;;;;;;53.35;26.37;;;;;;;0.00;94.55;99798.30;1818750;77;21248;-74
2021/01/10 10:23:16;;;;;;;54.35;25.08;;;;;;;0.05;94.96;99790.02;1822025;78;20989;-76
2021/01/10 10:25:48;;;;;;;53.15;24.15;;;;;;;0.08;94.90;99791.70;1823323;77;21605;-75
2021/01/10 10:28:15;;;;;;;51.45;24.18;;;;;;;0.07;94.62;99789.24;1799259;78;21544;-77
2021/01/10 10:30:44;;;;;;;50.15;24.63;;;;;;;0.07;94.60;99785.19;1827307;78;21161;-76
2021/01/10 10:33:13;;;;;;;49.13;24.40;;;;;;;0.08;94.66;99783.60;1827312;78;21118;-77
2021/01/10 10:35:40;;;;;;;54.18;25.62;;;;;;;0.13;94.88;99785.58;1827266;78;21188;-73
2021/01/10 10:38:10;;;;;;;52.73;25.60;;;;;;;0.18;94.53;99785.67;1827205;78;21014;-74
2021/01/10 10:40:38;;;;;;;48.25;22.82;;;;;;;0.20;94.23;99785.72;1823731;77;21178;-74
2021/01/10 10:43:06;;;;;;;46.23;22.25;;;;;;;0.26;94.31;99783.94;1820858;78;21607;-74
2021/01/10 10:45:33;;;;;;;53.58;24.47;;;;;;;0.31;94.01;99786.20;1819996;78;21139;-75
2021/01/10 10:48:01;;;;;;;46.88;23.30;;;;;;;0.33;93.46;99790.00;1819867;78;21010;-75
2021/01/10 10:50:29;;;;;;;49.42;23.77;;;;;;;0.34;93.26;99783.54;1820063;78;21088;-80
2021/01/10 10:52:56;;;;;;;48.38;23.02;;;;;;;0.37;93.13;99785.75;1820085;78;21559;-77
2021/01/10 10:55:26;;;;;;;48.55;22.40;;;;;;;0.43;93.37;99785.31;1820074;78;21184;-76
2021/01/10 10:57:56;;;;;;;49.45;23.10;;;;;;;0.45;92.37;99788.59;1819823;78;20966;-77
2021/01/10 11:00:25;;;;;;;52.10;26.25;;;;;;;0.41;91.87;99793.66;1822555;78;20995;-79
2021/01/10 11:02:53;;;;;;;47.73;23.52;;;;;;;0.38;92.35;99793.33;1824772;78;21118;-76
2021/01/10 11:05:22;;;;;;;44.33;23.35;;;;;;;0.37;92.44;99793.04;1824292;78;20998;-74
2021/01/10 11:07:52;;;;;;;46.55;22.77;;;;;;;0.36;92.02;99788.70;1824470;78;21059;-78
2021/01/10 11:10:20;;;;;;;46.05;23.18;;;;;;;0.33;91.88;99788.66;1824279;78;21438;-76
2021/01/10 11:12:47;;;;;;;45.60;23.15;;;;;;;0.31;91.94;99788.89;1824210;78;21177;-77
2021/01/10 11:15:15;;;;;;;46.15;22.95;;;;;;;0.31;91.90;99790.78;1824341;78;21579;-74
2021/01/10 11:17:42;;;;;;;46.68;21.25;;;;;;;0.31;92.09;99784.02;1824179;78;21039;-75
2021/01/10 11:20:10;;;;;;;50.45;22.95;;;;;;;0.28;91.82;99789.38;1824297;78;21514;-72
2021/01/10 11:22:41;;;;;;;45.50;22.73;;;;;;;0.25;92.08;99792.56;1820330;78;22184;-77
2021/01/10 11:25:10;;;;;;;41.85;21.40;;;;;;;0.26;92.35;99793.38;1825114;78;21490;-73
2021/01/10 11:27:37;;;;;;;42.73;21.57;;;;;;;0.29;92.48;99788.31;1824837;78;20924;-76
2021/01/10 11:30:07;;;;;;;45.10;22.58;;;;;;;0.32;92.37;99793.77;1824888;78;21560;-72
2021/01/10 11:32:34;;;;;;;45.28;22.80;;;;;;;0.33;92.20;99799.45;1824882;78;21537;-75
2021/01/10 11:35:04;;;;;;;49.10;23.12;;;;;;;0.34;92.37;99798.39;1824864;78;21321;-74
2021/01/10 11:37:32;;;;;;;49.18;21.87;;;;;;;0.36;92.30;99796.80;1824790;78;21175;-73
2021/01/10 11:39:59;;;;;;;48.23;23.00;;;;;;;0.35;92.15;99797.86;1824869;78;21498;-74